Time;durP1;ratioP1;P1;durP2;ratioP2;P2;SDS_P1;SDS_P2;PMS_P1;PMS_P2;Temp;Humidity;BMP_temperature;BMP_pressure;BME280_temperature;BME280_humidity;BME280_pressure;Samples;Min_cycle;Max_cycle;Signal;HPM_P1;HPM_P2
2024/03/13 00:00:22;;;;;;;4.88;2.88;;;;;;;;;;5044363;28;20062;-59
2024/03/13 00:02:53;;;;;;;5.32;3.05;;;;;;;;;;5050502;28;20045;-61
2024/03/13 00:05:22;;;;;;;5.63;3.20;;;;;;;;;;5031983;28;20041;-60
2024/03/13 00:07:54;;;;;;;6.10;3.40;;;;;;;;;;5040840;28;20047;-59
2024/03/13 00:10:24;;;;;;;6.45;3.03;;;;;;;;;;5043100;28;20574;-61
2024/03/13 00:12:52;;;;;;;5.57;2.65;;;;;;;;;;5045186;28;20041;-61
2024/03/13 00:15:21;;;;;;;5.15;3.20;;;;;;;;;;5037543;28;20460;-60
2024/03/13 00:17:49;;;;;;;4.97;2.90;;;;;;;;;;5040235;28;20056;-61
2024/03/13 00:20:18;;;;;;;5.88;2.78;;;;;;;;;;5041463;28;20493;-63
2024/03/13 00:22:47;;;;;;;6.60;3.00;;;;;;;;;;5046916;28;20051;-60
2024/03/13 00:25:19;;;;;;;7.00;3.13;;;;;;;;;;5037794;28;20053;-60
2024/03/13 00:27:47;;;;;;;5.60;2.83;;;;;;;;;;5044510;28;20414;-60
2024/03/13 00:30:16;;;;;;;6.28;3.30;;;;;;;;;;5039384;28;20061;-60
2024/03/13 00:32:45;;;;;;;6.07;3.10;;;;;;;;;;5044548;28;20494;-60
2024/03/13 00:35:14;;;;;;;5.75;3.45;;;;;;;;;;5044129;28;20055;-59
2024/03/13 00:37:42;;;;;;;4.18;2.80;;;;;;;;;;5040881;28;20049;-60
2024/03/13 00:40:13;;;;;;;6.13;3.28;;;;;;;;;;5043458;28;20045;-60
2024/03/13 00:42:44;;;;;;;4.95;2.88;;;;;;;;;;5031924;28;20163;-61
2024/03/13 00:45:13;;;;;;;7.05;3.45;;;;;;;;;;5041356;28;20045;-60
2024/03/13 00:47:41;;;;;;;5.22;2.78;;;;;;;;;;5040513;28;20052;-59
2024/03/13 00:50:12;;;;;;;6.10;3.17;;;;;;;;;;5040134;28;20080;-59
2024/03/13 00:52:41;;;;;;;5.10;3.08;;;;;;;;;;5030673;28;20584;-59
2024/03/13 00:55:10;;;;;;;5.72;2.80;;;;;;;;;;5040044;28;20095;-60
2024/03/13 00:57:41;;;;;;;5.40;3.22;;;;;;;;;;5037258;28;20044;-60
2024/03/13 01:00:15;;;;;;;6.72;3.28;;;;;;;;;;5044098;28;20128;-60
2024/03/13 01:02:44;;;;;;;6.00;3.10;;;;;;;;;;5036101;28;20053;-60
2024/03/13 01:05:15;;;;;;;6.03;3.38;;;;;;;;;;5043377;28;20037;-61
2024/03/13 01:07:45;;;;;;;7.38;3.80;;;;;;;;;;5054337;28;20045;-60
2024/03/13 01:10:13;;;;;;;4.57;2.75;;;;;;;;;;5051026;28;20060;-60
2024/03/13 01:12:42;;;;;;;5.40;3.17;;;;;;;;;;5059935;28;20056;-60
2024/03/13 01:15:14;;;;;;;5.70;3.15;;;;;;;;;;5047074;28;20490;-60
2024/03/13 01:17:43;;;;;;;5.15;2.85;;;;;;;;;;5058050;28;20492;-60
2024/03/13 01:20:17;;;;;;;6.18;3.33;;;;;;;;;;5054067;28;20395;-61
2024/03/13 01:22:47;;;;;;;4.85;3.17;;;;;;;;;;5046563;28;20048;-61
2024/03/13 01:25:19;;;;;;;5.97;3.08;;;;;;;;;;5049572;28;20052;-60
2024/03/13 01:27:48;;;;;;;4.75;2.88;;;;;;;;;;5048206;28;20468;-60
2024/03/13 01:30:18;;;;;;;4.20;2.58;;;;;;;;;;5050755;28;20150;-59
2024/03/13 01:32:47;;;;;;;5.75;2.92;;;;;;;;;;5054686;28;20692;-60
2024/03/13 01:35:19;;;;;;;6.32;3.25;;;;;;;;;;5053272;28;20136;-62
2024/03/13 01:37:55;;;;;;;4.63;2.70;;;;;;;;;;5050066;28;20131;-59
2024/03/13 01:54:50;;;;;;;5.70;2.88;;;;;;;;;;5040834;28;20066;-61
2024/03/13 01:55:04;;;;;;;6.15;2.90;;;;;;;;;;5046191;28;20048;-60
2024/03/13 01:57:33;;;;;;;4.35;2.42;;;;;;;;;;5039782;28;20136;-60
2024/03/13 02:02:49;;;;;;;4.35;2.78;;;;;;;;;;5058327;28;20076;-59
2024/03/13 02:05:21;;;;;;;5.60;2.50;;;;;;;;;;5055061;28;20595;-62
2024/03/13 02:07:50;;;;;;;4.72;2.28;;;;;;;;;;5042793;28;20041;-61
2024/03/13 02:10:18;;;;;;;3.83;2.25;;;;;;;;;;5038678;28;20136;-58
2024/03/13 02:13:03;;;;;;;4.85;2.50;;;;;;;;;;5044695;28;20066;-59
2024/03/13 02:15:32;;;;;;;3.55;2.30;;;;;;;;;;5050492;28;20047;-61
2024/03/13 02:18:01;;;;;;;5.18;2.88;;;;;;;;;;5053822;28;20045;-59
2024/03/13 02:20:36;;;;;;;3.80;2.58;;;;;;;;;;5056333;28;20053;-59
2024/03/13 02:23:05;;;;;;;4.82;2.38;;;;;;;;;;5053561;28;20406;-60
2024/03/13 02:25:34;;;;;;;5.80;2.65;;;;;;;;;;5047195;28;20140;-58
2024/03/13 02:28:02;;;;;;;3.15;2.22;;;;;;;;;;5051164;28;20103;-59
2024/03/13 02:30:31;;;;;;;3.42;2.13;;;;;;;;;;5053000;28;20063;-60
2024/03/13 02:33:00;;;;;;;4.03;2.33;;;;;;;;;;5053045;28;20049;-59
2024/03/13 02:35:28;;;;;;;4.28;2.47;;;;;;;;;;5047656;28;20505;-59
2024/03/13 02:37:57;;;;;;;5.43;2.33;;;;;;;;;;5049482;28;20045;-59
2024/03/13 02:40:25;;;;;;;3.45;2.20;;;;;;;;;;5073170;28;20492;-60
2024/03/13 02:42:54;;;;;;;3.25;2.00;;;;;;;;;;5072867;28;20044;-59
2024/03/13 02:45:24;;;;;;;4.65;2.72;;;;;;;;;;5069404;28;20063;-58
2024/03/13 02:47:53;;;;;;;4.30;2.42;;;;;;;;;;5066333;28;20051;-57
2024/03/13 02:50:21;;;;;;;4.22;2.20;;;;;;;;;;5072463;28;20129;-59
2024/03/13 02:52:50;;;;;;;4.60;2.80;;;;;;;;;;5067545;28;20041;-59
2024/03/13 02:55:18;;;;;;;3.03;2.08;;;;;;;;;;5067469;28;20505;-58
2024/03/13 02:57:47;;;;;;;6.82;2.75;;;;;;;;;;5069943;28;20044;-59
2024/03/13 03:00:16;;;;;;;5.68;2.70;;;;;;;;;;5056686;28;20053;-58
2024/03/13 03:02:44;;;;;;;3.35;2.45;;;;;;;;;;5063965;28;20148;-62
2024/03/13 03:05:13;;;;;;;4.32;2.45;;;;;;;;;;5073217;28;20562;-59
2024/03/13 03:07:43;;;;;;;5.30;2.55;;;;;;;;;;5064460;28;20068;-59
2024/03/13 03:10:11;;;;;;;5.55;3.03;;;;;;;;;;5068218;28;20049;-60
2024/03/13 03:12:42;;;;;;;3.33;2.10;;;;;;;;;;5060150;28;20052;-58
2024/03/13 03:15:11;;;;;;;5.03;2.67;;;;;;;;;;5068617;28;20577;-58
2024/03/13 03:17:40;;;;;;;3.97;2.47;;;;;;;;;;5068388;28;20048;-58
2024/03/13 03:20:09;;;;;;;4.80;2.55;;;;;;;;;;5072949;28;20049;-59
2024/03/13 03:22:37;;;;;;;3.20;2.30;;;;;;;;;;5063415;28;20053;-60
2024/03/13 03:25:06;;;;;;;4.80;2.40;;;;;;;;;;5075198;28;20513;-58
2024/03/13 03:27:34;;;;;;;3.90;2.17;;;;;;;;;;5071530;28;20052;-58
2024/03/13 03:30:03;;;;;;;4.55;2.60;;;;;;;;;;5038768;28;20135;-59
2024/03/13 03:32:32;;;;;;;3.35;2.17;;;;;;;;;;5037544;28;20053;-60
2024/03/13 03:35:00;;;;;;;4.57;2.45;;;;;;;;;;5057867;28;20323;-59
2024/03/13 03:37:29;;;;;;;4.75;2.22;;;;;;;;;;5053055;28;20772;-59
2024/03/13 03:39:57;;;;;;;3.92;2.45;;;;;;;;;;5053626;28;20083;-58
2024/03/13 03:42:27;;;;;;;3.92;2.25;;;;;;;;;;5044791;28;20036;-59
2024/03/13 03:44:55;;;;;;;3.58;2.50;;;;;;;;;;5054015;28;20529;-60
2024/03/13 03:47:24;;;;;;;3.72;2.13;;;;;;;;;;5043089;28;20049;-59
2024/03/13 03:49:53;;;;;;;4.20;2.45;;;;;;;;;;5041058;28;20524;-58
2024/03/13 03:52:21;;;;;;;4.60;2.50;;;;;;;;;;5057950;28;20068;-59
2024/03/13 03:54:49;;;;;;;3.05;1.92;;;;;;;;;;5040018;28;20401;-59
2024/03/13 03:57:19;;;;;;;4.28;2.60;;;;;;;;;;5044302;28;20121;-60
2024/03/13 03:59:48;;;;;;;3.15;2.00;;;;;;;;;;5053917;28;20331;-58
2024/03/13 04:02:16;;;;;;;2.88;1.80;;;;;;;;;;5052968;28;20045;-60
2024/03/13 04:04:45;;;;;;;1.42;0.98;;;;;;;;;;5044853;28;20113;-59
2024/03/13 04:07:13;;;;;;;1.30;1.10;;;;;;;;;;5039351;28;20048;-59
2024/03/13 04:09:42;;;;;;;1.08;0.98;;;;;;;;;;5049538;28;20053;-60
2024/03/13 04:12:10;;;;;;;1.17;0.88;;;;;;;;;;5056146;28;20359;-60
2024/03/13 04:14:38;;;;;;;1.02;0.90;;;;;;;;;;5046493;28;20579;-59
2024/03/13 04:17:09;;;;;;;1.45;1.25;;;;;;;;;;5058670;28;20049;-59
2024/03/13 04:19:39;;;;;;;1.30;1.17;;;;;;;;;;5050560;28;20069;-60
2024/03/13 04:22:08;;;;;;;2.38;1.10;;;;;;;;;;5070784;28;20039;-60
2024/03/13 04:24:37;;;;;;;2.30;1.00;;;;;;;;;;5060245;28;20128;-62
2024/03/13 04:27:05;;;;;;;2.78;1.05;;;;;;;;;;5080830;28;20042;-59
2024/03/13 04:29:34;;;;;;;1.83;1.08;;;;;;;;;;5061242;28;20113;-61
2024/03/13 04:32:14;;;;;;;1.33;0.90;;;;;;;;;;5064689;28;20125;-60
2024/03/13 04:34:44;;;;;;;1.08;0.90;;;;;;;;;;5067034;28;20056;-59
2024/03/13 04:37:15;;;;;;;1.00;0.90;;;;;;;;;;5062052;28;20037;-59
2024/03/13 04:39:43;;;;;;;0.93;0.80;;;;;;;;;;5063102;28;20072;-59
2024/03/13 04:42:12;;;;;;;1.55;0.90;;;;;;;;;;5079981;28;20052;-59
2024/03/13 04:44:42;;;;;;;1.15;0.93;;;;;;;;;;5072018;28;20044;-60
2024/03/13 04:47:12;;;;;;;1.27;0.90;;;;;;;;;;5076923;28;20095;-60
2024/03/13 04:49:41;;;;;;;0.70;0.70;;;;;;;;;;5068146;28;20485;-58
2024/03/13 04:52:10;;;;;;;2.08;1.00;;;;;;;;;;5073854;28;20048;-59
2024/03/13 04:54:39;;;;;;;0.80;0.80;;;;;;;;;;5070379;28;20063;-60
2024/03/13 04:57:07;;;;;;;0.77;0.57;;;;;;;;;;5063882;28;20106;-59
2024/03/13 04:59:36;;;;;;;0.88;0.75;;;;;;;;;;5076037;28;20102;-59
2024/03/13 05:02:05;;;;;;;0.80;0.70;;;;;;;;;;5071331;28;20493;-59
2024/03/13 05:04:35;;;;;;;1.40;0.80;;;;;;;;;;5071104;28;20118;-58
2024/03/13 05:07:03;;;;;;;1.05;0.90;;;;;;;;;;5071103;28;20132;-59
2024/03/13 05:09:32;;;;;;;0.90;0.80;;;;;;;;;;5053094;28;20529;-59
2024/03/13 05:12:03;;;;;;;0.80;0.77;;;;;;;;;;5054323;28;20052;-62
2024/03/13 05:14:32;;;;;;;0.80;0.80;;;;;;;;;;5049512;28;20409;-59
2024/03/13 05:17:00;;;;;;;2.08;0.90;;;;;;;;;;5048988;28;20459;-60
2024/03/13 05:19:29;;;;;;;1.42;0.80;;;;;;;;;;5051144;28;20110;-59
2024/03/13 05:21:58;;;;;;;0.80;0.80;;;;;;;;;;5068805;28;20090;-59
2024/03/13 05:24:26;;;;;;;1.13;0.80;;;;;;;;;;5056986;28;20405;-59
2024/03/13 05:26:54;;;;;;;3.17;0.80;;;;;;;;;;5065956;28;20057;-59
2024/03/13 05:29:23;;;;;;;0.88;0.88;;;;;;;;;;5067981;28;20048;-59
2024/03/13 05:31:51;;;;;;;2.53;1.10;;;;;;;;;;5058369;28;20094;-59
2024/03/13 05:34:20;;;;;;;4.68;1.10;;;;;;;;;;5061848;28;20113;-59
2024/03/13 05:36:49;;;;;;;0.95;0.70;;;;;;;;;;5067536;28;20127;-60
2024/03/13 05:39:18;;;;;;;2.35;1.10;;;;;;;;;;5059749;28;20049;-59
2024/03/13 05:41:46;;;;;;;0.80;0.70;;;;;;;;;;5061621;28;20110;-58
2024/03/13 05:44:15;;;;;;;1.15;0.90;;;;;;;;;;5061734;28;20509;-60
2024/03/13 05:46:43;;;;;;;0.95;0.80;;;;;;;;;;5062822;28;20045;-60
2024/03/13 05:49:16;;;;;;;3.17;1.20;;;;;;;;;;5065446;28;20408;-59
2024/03/13 05:51:45;;;;;;;2.58;1.10;;;;;;;;;;5062933;28;20493;-59
2024/03/13 05:54:13;;;;;;;2.15;0.98;;;;;;;;;;5066859;28;20053;-62
2024/03/13 05:56:43;;;;;;;1.70;1.02;;;;;;;;;;5062507;28;20049;-60
2024/03/13 05:59:11;;;;;;;1.23;1.00;;;;;;;;;;5064341;28;20049;-59
2024/03/13 06:01:40;;;;;;;1.55;1.23;;;;;;;;;;5060509;28;20060;-59
2024/03/13 06:04:08;;;;;;;1.75;1.30;;;;;;;;;;5057192;28;20055;-60
2024/03/13 06:06:37;;;;;;;1.38;0.95;;;;;;;;;;5063711;28;20490;-58
2024/03/13 06:09:07;;;;;;;2.25;1.10;;;;;;;;;;5074145;28;20113;-59
2024/03/13 06:11:35;;;;;;;3.83;1.27;;;;;;;;;;5064235;28;20109;-59
2024/03/13 06:14:03;;;;;;;3.70;1.17;;;;;;;;;;5063905;28;20056;-60
2024/03/13 06:16:32;;;;;;;2.42;1.35;;;;;;;;;;5066700;28;20141;-59
2024/03/13 06:19:00;;;;;;;1.40;1.02;;;;;;;;;;5067776;28;20058;-58
2024/03/13 06:21:29;;;;;;;1.52;1.13;;;;;;;;;;5062087;28;20036;-59
2024/03/13 06:24:00;;;;;;;2.00;1.40;;;;;;;;;;5066826;28;20047;-61
2024/03/13 06:26:29;;;;;;;1.73;1.20;;;;;;;;;;5059144;28;20529;-59
2024/03/13 06:31:49;;;;;;;1.40;1.17;;;;;;;;;;5056102;28;20078;-58
2024/03/13 06:34:17;;;;;;;1.88;1.27;;;;;;;;;;5067972;28;20059;-59
2024/03/13 06:36:46;;;;;;;2.53;1.20;;;;;;;;;;5063490;28;20040;-60
2024/03/13 06:39:16;;;;;;;1.45;1.15;;;;;;;;;;5069313;28;20560;-59
2024/03/13 06:41:44;;;;;;;1.75;1.30;;;;;;;;;;5064708;28;20052;-59
2024/03/13 06:44:13;;;;;;;1.33;1.10;;;;;;;;;;5067249;28;20076;-58
2024/03/13 06:46:41;;;;;;;2.38;1.20;;;;;;;;;;5069038;28;20134;-61
2024/03/13 06:49:10;;;;;;;1.73;1.15;;;;;;;;;;5063891;28;20118;-58
2024/03/13 06:51:38;;;;;;;1.58;1.20;;;;;;;;;;5073092;28;20076;-62
2024/03/13 06:54:07;;;;;;;2.10;1.10;;;;;;;;;;5058644;28;20077;-59
2024/03/13 06:56:35;;;;;;;1.67;1.15;;;;;;;;;;5072499;28;20047;-58
2024/03/13 06:59:03;;;;;;;2.15;1.25;;;;;;;;;;5069367;28;20133;-60
2024/03/13 07:01:32;;;;;;;1.10;1.00;;;;;;;;;;5063987;28;20544;-61
2024/03/13 07:04:00;;;;;;;2.13;1.35;;;;;;;;;;5068504;28;20054;-60
2024/03/13 07:06:29;;;;;;;1.70;1.00;;;;;;;;;;5062108;28;20045;-59
2024/03/13 07:08:57;;;;;;;1.60;0.98;;;;;;;;;;5063306;28;20080;-59
2024/03/13 07:11:28;;;;;;;1.10;0.80;;;;;;;;;;5062284;28;20439;-61
2024/03/13 07:13:57;;;;;;;0.90;0.80;;;;;;;;;;5066085;28;20467;-60
2024/03/13 07:16:25;;;;;;;1.33;0.68;;;;;;;;;;5064125;28;20047;-60
2024/03/13 07:18:55;;;;;;;2.63;0.90;;;;;;;;;;5067033;28;20048;-58
2024/03/13 07:21:23;;;;;;;1.42;1.00;;;;;;;;;;5064232;28;20056;-59
2024/03/13 07:23:52;;;;;;;0.95;0.70;;;;;;;;;;5056806;28;20053;-60
2024/03/13 07:26:21;;;;;;;1.00;0.70;;;;;;;;;;5065294;28;20041;-60
2024/03/13 07:28:49;;;;;;;0.70;0.70;;;;;;;;;;5062781;28;20037;-60
2024/03/13 07:31:18;;;;;;;0.93;0.80;;;;;;;;;;5067897;28;20048;-60
2024/03/13 07:33:46;;;;;;;1.00;0.90;;;;;;;;;;5056482;28;20049;-61
2024/03/13 07:36:14;;;;;;;1.58;0.90;;;;;;;;;;5067568;28;20064;-59
2024/03/13 07:38:43;;;;;;;1.38;1.00;;;;;;;;;;5061238;28;20053;-62
2024/03/13 07:41:11;;;;;;;1.33;1.00;;;;;;;;;;5064016;28;20117;-60
2024/03/13 07:43:40;;;;;;;0.80;0.80;;;;;;;;;;5058729;28;20413;-59
2024/03/13 07:46:09;;;;;;;1.48;1.02;;;;;;;;;;5066829;28;20056;-59
2024/03/13 07:48:38;;;;;;;2.28;0.90;;;;;;;;;;5059967;28;20452;-59
2024/03/13 07:51:11;;;;;;;1.70;1.00;;;;;;;;;;5062629;28;20110;-62
2024/03/13 07:53:40;;;;;;;1.75;0.85;;;;;;;;;;5065378;28;20933;-61
2024/03/13 07:56:08;;;;;;;2.55;0.77;;;;;;;;;;5067238;28;20052;-59
2024/03/13 07:58:37;;;;;;;0.95;0.80;;;;;;;;;;5066585;28;20106;-59
2024/03/13 08:01:07;;;;;;;1.23;0.90;;;;;;;;;;5062840;28;20056;-60
2024/03/13 08:03:35;;;;;;;1.05;0.73;;;;;;;;;;5067114;28;20067;-60
2024/03/13 08:06:04;;;;;;;2.47;0.75;;;;;;;;;;5063457;28;20409;-64
2024/03/13 08:08:51;;;;;;;1.50;0.85;;;;;;;;;;5067028;28;20048;-59
2024/03/13 08:11:37;;;;;;;0.82;0.80;;;;;;;;;;5072021;28;20512;-60
2024/03/13 08:14:23;;;;;;;1.10;0.90;;;;;;;;;;5068238;28;20301;-60
2024/03/13 08:17:10;;;;;;;2.20;0.77;;;;;;;;;;5078598;28;20569;-59
2024/03/13 08:19:56;;;;;;;1.42;1.00;;;;;;;;;;5066584;28;20043;-63
2024/03/13 08:22:43;;;;;;;1.00;0.90;;;;;;;;;;5073925;28;20084;-60
2024/03/13 08:25:29;;;;;;;1.10;1.00;;;;;;;;;;5074286;28;20231;-58
2024/03/13 08:28:15;;;;;;;3.90;0.80;;;;;;;;;;5078100;28;20529;-59
2024/03/13 08:31:01;;;;;;;0.60;0.60;;;;;;;;;;5075486;28;20137;-58
2024/03/13 08:33:47;;;;;;;1.60;0.90;;;;;;;;;;5070169;28;20047;-59
2024/03/13 08:36:33;;;;;;;0.85;0.70;;;;;;;;;;5078465;28;20132;-58
2024/03/13 08:39:25;;;;;;;0.75;0.75;;;;;;;;;;5067224;28;20352;-60
2024/03/13 08:42:13;;;;;;;0.60;0.60;;;;;;;;;;5059818;28;20567;-58
2024/03/13 08:45:01;;;;;;;0.60;0.60;;;;;;;;;;5074381;28;20058;-60
2024/03/13 08:47:47;;;;;;;0.63;0.63;;;;;;;;;;5061855;28;20401;-59
2024/03/13 08:50:33;;;;;;;0.50;0.50;;;;;;;;;;5069160;28;20055;-61
2024/03/13 08:53:19;;;;;;;0.70;0.70;;;;;;;;;;5066937;28;20071;-60
2024/03/13 08:56:07;;;;;;;0.75;0.57;;;;;;;;;;5067195;28;20183;-59
2024/03/13 08:58:53;;;;;;;0.70;0.70;;;;;;;;;;5070633;28;20043;-59
2024/03/13 09:01:41;;;;;;;1.83;0.73;;;;;;;;;;5065516;28;20055;-60
2024/03/13 09:04:28;;;;;;;0.63;0.60;;;;;;;;;;5068482;28;20047;-60
2024/03/13 09:07:13;;;;;;;2.78;0.90;;;;;;;;;;5070070;28;20052;-60
2024/03/13 09:09:42;;;;;;;0.93;0.82;;;;;;;;;;5068662;28;20044;-61
2024/03/13 09:12:13;;;;;;;0.68;0.68;;;;;;;;;;5068500;28;20047;-60
2024/03/13 09:14:42;;;;;;;1.10;0.60;;;;;;;;;;5065638;28;20527;-59
2024/03/13 09:17:10;;;;;;;0.93;0.73;;;;;;;;;;5066474;28;20549;-59
2024/03/13 09:19:39;;;;;;;1.23;0.60;;;;;;;;;;5077715;28;20097;-60
2024/03/13 09:22:11;;;;;;;1.90;0.85;;;;;;;;;;5068851;28;20052;-61
2024/03/13 09:24:39;;;;;;;1.27;0.90;;;;;;;;;;5073343;28;20052;-62
2024/03/13 09:27:08;;;;;;;0.52;0.52;;;;;;;;;;5068240;28;20041;-58
2024/03/13 09:29:37;;;;;;;1.55;0.90;;;;;;;;;;5081979;28;20044;-59
2024/03/13 09:32:05;;;;;;;0.60;0.60;;;;;;;;;;5068260;28;20048;-60
2024/03/13 09:34:34;;;;;;;0.70;0.70;;;;;;;;;;5067317;28;20113;-59
2024/03/13 09:37:09;;;;;;;2.13;0.60;;;;;;;;;;5068096;28;20509;-61
2024/03/13 09:39:38;;;;;;;0.82;0.77;;;;;;;;;;5068182;28;20049;-59
2024/03/13 09:42:08;;;;;;;0.60;0.60;;;;;;;;;;5066220;28;20485;-59
2024/03/13 09:44:37;;;;;;;1.60;0.60;;;;;;;;;;5067926;28;20110;-59
2024/03/13 09:47:06;;;;;;;0.50;0.50;;;;;;;;;;5067576;28;20090;-60
2024/03/13 09:49:34;;;;;;;0.60;0.55;;;;;;;;;;5067122;28;20056;-61
2024/03/13 09:52:03;;;;;;;1.48;0.70;;;;;;;;;;5057222;28;20383;-60
2024/03/13 09:54:33;;;;;;;0.60;0.60;;;;;;;;;;5068354;28;20064;-59
2024/03/13 09:57:01;;;;;;;0.88;0.80;;;;;;;;;;5064978;28;20079;-60
2024/03/13 09:59:30;;;;;;;0.65;0.65;;;;;;;;;;5053449;28;20065;-60
2024/03/13 10:01:59;;;;;;;0.50;0.50;;;;;;;;;;5064175;28;20409;-62
2024/03/13 10:04:29;;;;;;;0.60;0.60;;;;;;;;;;5066248;28;20525;-59
2024/03/13 10:06:57;;;;;;;0.73;0.73;;;;;;;;;;5061778;28;20048;-60
2024/03/13 10:09:28;;;;;;;0.50;0.50;;;;;;;;;;5051812;28;311186;-60
2024/03/13 10:11:57;;;;;;;0.60;0.60;;;;;;;;;;5054653;28;20049;-60
2024/03/13 10:14:25;;;;;;;0.68;0.60;;;;;;;;;;5063601;28;20052;-60
2024/03/13 10:16:54;;;;;;;2.58;0.60;;;;;;;;;;5069092;28;20053;-59
2024/03/13 10:19:27;;;;;;;2.08;0.70;;;;;;;;;;5068538;28;20045;-59
2024/03/13 10:21:56;;;;;;;0.77;0.65;;;;;;;;;;5063400;28;20135;-60
2024/03/13 10:24:25;;;;;;;0.68;0.68;;;;;;;;;;5062939;28;20053;-61
2024/03/13 10:26:54;;;;;;;0.77;0.50;;;;;;;;;;5058736;28;20110;-60
2024/03/13 10:29:22;;;;;;;0.68;0.60;;;;;;;;;;5062092;28;20060;-64
2024/03/13 10:31:51;;;;;;;0.57;0.50;;;;;;;;;;5052794;28;20049;-59
2024/03/13 10:34:21;;;;;;;0.82;0.75;;;;;;;;;;5057705;28;20041;-60
2024/03/13 10:36:49;;;;;;;0.40;0.40;;;;;;;;;;5061440;28;20131;-60
2024/03/13 10:39:34;;;;;;;;;;;;;;;;;;5055241;28;20525;-60
2024/03/13 10:42:03;;;;;;;0.47;0.47;;;;;;;;;;5057779;28;19928;-59
2024/03/13 10:44:32;;;;;;;0.50;0.50;;;;;;;;;;5063894;28;20048;-60
2024/03/13 10:47:00;;;;;;;0.50;0.50;;;;;;;;;;5056903;28;20048;-61
2024/03/13 10:49:30;;;;;;;0.60;0.60;;;;;;;;;;5067750;28;20113;-60
2024/03/13 10:52:01;;;;;;;1.00;0.60;;;;;;;;;;5067710;28;20052;-63
2024/03/13 10:54:30;;;;;;;0.50;0.50;;;;;;;;;;5061325;28;20109;-60
2024/03/13 10:56:59;;;;;;;0.50;0.50;;;;;;;;;;5068237;28;20102;-61
2024/03/13 10:59:29;;;;;;;1.40;0.73;;;;;;;;;;5066581;28;20080;-60
2024/03/13 11:01:57;;;;;;;0.60;0.60;;;;;;;;;;5067925;28;20048;-60
2024/03/13 11:04:26;;;;;;;0.40;0.40;;;;;;;;;;5068123;28;20067;-60
2024/03/13 11:06:55;;;;;;;0.60;0.50;;;;;;;;;;5060351;28;20040;-59
2024/03/13 11:09:24;;;;;;;0.60;0.60;;;;;;;;;;5060329;28;20523;-64
2024/03/13 11:11:52;;;;;;;1.95;0.50;;;;;;;;;;5064985;28;20076;-61
2024/03/13 11:14:21;;;;;;;0.85;0.50;;;;;;;;;;5068339;28;20049;-62
2024/03/13 11:16:50;;;;;;;1.25;0.60;;;;;;;;;;5066931;28;20060;-60
2024/03/13 11:19:18;;;;;;;1.10;0.52;;;;;;;;;;5067403;28;20446;-60
2024/03/13 11:21:47;;;;;;;1.23;1.02;;;;;;;;;;5063770;28;20048;-61
2024/03/13 11:24:18;;;;;;;0.68;0.65;;;;;;;;;;5065006;28;20174;-62
2024/03/13 11:26:49;;;;;;;0.47;0.47;;;;;;;;;;5072555;28;20040;-62
2024/03/13 11:29:17;;;;;;;0.60;0.60;;;;;;;;;;5060469;28;20496;-60
2024/03/13 11:31:46;;;;;;;0.50;0.50;;;;;;;;;;5048446;28;20375;-60
2024/03/13 11:34:15;;;;;;;0.47;0.47;;;;;;;;;;5051215;28;20044;-60
2024/03/13 11:36:44;;;;;;;1.10;0.60;;;;;;;;;;5053197;28;20053;-61
2024/03/13 11:39:15;;;;;;;1.00;0.77;;;;;;;;;;5047353;28;20068;-61
2024/03/13 11:41:44;;;;;;;0.77;0.60;;;;;;;;;;5057350;28;20516;-59
2024/03/13 11:44:16;;;;;;;0.95;0.60;;;;;;;;;;5067187;28;20052;-60
2024/03/13 11:46:45;;;;;;;0.70;0.63;;;;;;;;;;5067018;28;20105;-60
2024/03/13 11:49:14;;;;;;;0.60;0.60;;;;;;;;;;5072213;28;20383;-60
2024/03/13 11:52:10;;;;;;;0.70;0.50;;;;;;;;;;5064181;28;20482;-61
2024/03/13 11:54:40;;;;;;;0.57;0.57;;;;;;;;;;5068350;28;20106;-61
2024/03/13 11:57:08;;;;;;;1.08;0.80;;;;;;;;;;5074484;28;20511;-60
2024/03/13 11:59:40;;;;;;;0.60;0.60;;;;;;;;;;5058106;28;20052;-61
2024/03/13 12:02:10;;;;;;;0.70;0.68;;;;;;;;;;5047269;28;20053;-61
2024/03/13 12:04:39;;;;;;;2.08;0.80;;;;;;;;;;5043046;28;20399;-60
2024/03/13 12:07:08;;;;;;;0.60;0.60;;;;;;;;;;5047071;28;20130;-60
2024/03/13 12:09:36;;;;;;;2.42;0.80;;;;;;;;;;5054670;28;20114;-60
2024/03/13 12:12:05;;;;;;;0.80;0.70;;;;;;;;;;5066988;28;20132;-60
2024/03/13 12:14:33;;;;;;;0.73;0.70;;;;;;;;;;5056437;28;20076;-61
2024/03/13 12:17:02;;;;;;;0.73;0.73;;;;;;;;;;5067475;28;20064;-60
2024/03/13 12:19:30;;;;;;;0.60;0.60;;;;;;;;;;5066403;28;20086;-59
2024/03/13 12:21:58;;;;;;;0.60;0.60;;;;;;;;;;5065228;28;20121;-60
2024/03/13 12:24:27;;;;;;;2.15;0.60;;;;;;;;;;5067165;28;20040;-62
2024/03/13 12:26:56;;;;;;;0.70;0.70;;;;;;;;;;5075888;28;20286;-62
2024/03/13 12:29:27;;;;;;;2.17;0.60;;;;;;;;;;5066652;28;20462;-61
2024/03/13 12:31:56;;;;;;;0.65;0.65;;;;;;;;;;5064825;28;20291;-60
2024/03/13 12:34:25;;;;;;;1.27;0.60;;;;;;;;;;5069453;28;20076;-61
2024/03/13 12:36:53;;;;;;;0.65;0.65;;;;;;;;;;5065003;28;20051;-62
2024/03/13 12:39:21;;;;;;;5.40;0.73;;;;;;;;;;5063388;28;20584;-60
2024/03/13 12:41:51;;;;;;;1.00;0.80;;;;;;;;;;5074583;28;20071;-60
2024/03/13 12:44:19;;;;;;;0.70;0.70;;;;;;;;;;5076227;28;20051;-60
2024/03/13 12:46:48;;;;;;;1.48;0.80;;;;;;;;;;5075301;28;20044;-61
2024/03/13 12:49:17;;;;;;;1.02;0.70;;;;;;;;;;5064621;28;20049;-61
2024/03/13 12:51:46;;;;;;;1.02;0.90;;;;;;;;;;5062301;28;20036;-61
2024/03/13 12:54:15;;;;;;;0.73;0.73;;;;;;;;;;5075358;28;20083;-62
2024/03/13 12:56:44;;;;;;;1.40;0.70;;;;;;;;;;5070669;28;20122;-61
2024/03/13 12:59:14;;;;;;;1.00;0.90;;;;;;;;;;5080582;28;20044;-61
2024/03/13 13:01:43;;;;;;;0.80;0.73;;;;;;;;;;5071938;28;20049;-62
2024/03/13 13:04:11;;;;;;;0.60;0.60;;;;;;;;;;5069267;28;20041;-62
2024/03/13 13:06:40;;;;;;;0.77;0.70;;;;;;;;;;5064981;28;20051;-61
2024/03/13 13:09:09;;;;;;;1.02;0.82;;;;;;;;;;5074513;28;20109;-61
2024/03/13 13:11:40;;;;;;;0.85;0.85;;;;;;;;;;5069182;28;20125;-62
2024/03/13 13:14:13;;;;;;;2.95;2.45;;;;;;;;;;5060228;28;20123;-62
2024/03/13 13:16:41;;;;;;;1.40;0.90;;;;;;;;;;5063743;28;20385;-61
2024/03/13 13:19:10;;;;;;;1.25;0.75;;;;;;;;;;5068735;28;20099;-60
2024/03/13 13:21:39;;;;;;;1.08;0.90;;;;;;;;;;5060115;28;20045;-64
2024/03/13 13:24:07;;;;;;;1.08;0.70;;;;;;;;;;5069619;28;20086;-63
2024/03/13 13:26:37;;;;;;;2.25;0.88;;;;;;;;;;5056692;28;20044;-62
2024/03/13 13:29:05;;;;;;;1.80;0.90;;;;;;;;;;5066838;28;20098;-62
2024/03/13 13:31:36;;;;;;;0.90;0.80;;;;;;;;;;5069842;28;20078;-62
2024/03/13 13:34:05;;;;;;;0.80;0.80;;;;;;;;;;5069703;28;20151;-62
2024/03/13 13:36:35;;;;;;;0.70;0.70;;;;;;;;;;5061920;28;20071;-62
2024/03/13 13:39:04;;;;;;;0.82;0.80;;;;;;;;;;5067416;28;20048;-63
2024/03/13 13:41:34;;;;;;;1.40;1.13;;;;;;;;;;5060062;28;20053;-62
2024/03/13 13:44:03;;;;;;;1.08;0.85;;;;;;;;;;5065206;28;20158;-61
2024/03/13 13:46:35;;;;;;;0.77;0.77;;;;;;;;;;5065839;28;20587;-62
2024/03/13 13:49:04;;;;;;;0.65;0.65;;;;;;;;;;5071234;28;20110;-64
2024/03/13 13:51:36;;;;;;;0.75;0.70;;;;;;;;;;5064565;28;20153;-64
2024/03/13 13:54:05;;;;;;;0.73;0.60;;;;;;;;;;5070149;28;20547;-62
2024/03/13 13:56:33;;;;;;;0.80;0.70;;;;;;;;;;5069296;28;20135;-61
2024/03/13 13:59:02;;;;;;;0.70;0.70;;;;;;;;;;5070891;28;20564;-62
2024/03/13 14:01:35;;;;;;;0.80;0.80;;;;;;;;;;5071874;28;20051;-64
2024/03/13 14:04:05;;;;;;;0.70;0.70;;;;;;;;;;5068892;28;20178;-64
2024/03/13 14:06:35;;;;;;;0.73;0.73;;;;;;;;;;5062063;28;20132;-63
2024/03/13 14:09:05;;;;;;;1.52;0.80;;;;;;;;;;5065793;28;20051;-62
2024/03/13 14:11:34;;;;;;;0.52;0.52;;;;;;;;;;5051927;28;20044;-64
2024/03/13 14:14:03;;;;;;;0.70;0.70;;;;;;;;;;5046735;28;20556;-61
2024/03/13 14:16:32;;;;;;;1.23;0.80;;;;;;;;;;5042269;28;20045;-62
2024/03/13 14:19:01;;;;;;;0.60;0.60;;;;;;;;;;5052609;28;20064;-62
2024/03/13 14:21:29;;;;;;;0.95;0.80;;;;;;;;;;5069351;28;20049;-62
2024/03/13 14:23:59;;;;;;;0.60;0.60;;;;;;;;;;5069095;28;20090;-63
2024/03/13 14:26:28;;;;;;;0.65;0.65;;;;;;;;;;5067007;28;20044;-61
2024/03/13 14:28:56;;;;;;;0.70;0.70;;;;;;;;;;5060763;28;20079;-62
2024/03/13 14:31:25;;;;;;;1.05;0.80;;;;;;;;;;5068391;28;20048;-62
2024/03/13 14:33:53;;;;;;;0.77;0.73;;;;;;;;;;5068871;28;20065;-62
2024/03/13 14:36:22;;;;;;;1.67;0.60;;;;;;;;;;5066732;28;20079;-62
2024/03/13 14:38:51;;;;;;;0.80;0.77;;;;;;;;;;5066844;28;20135;-63
2024/03/13 14:41:22;;;;;;;2.70;0.70;;;;;;;;;;5067811;28;20128;-66
2024/03/13 14:43:51;;;;;;;0.65;0.65;;;;;;;;;;5081713;28;20055;-63
2024/03/13 14:46:19;;;;;;;0.85;0.73;;;;;;;;;;5067297;28;20102;-62
2024/03/13 14:48:48;;;;;;;0.75;0.75;;;;;;;;;;5066251;28;20071;-61
2024/03/13 14:51:17;;;;;;;1.08;0.75;;;;;;;;;;5059020;28;20040;-62
2024/03/13 14:53:46;;;;;;;0.70;0.70;;;;;;;;;;5067980;28;20056;-62
2024/03/13 14:56:15;;;;;;;0.90;0.80;;;;;;;;;;5068138;28;20044;-61
2024/03/13 14:58:44;;;;;;;1.35;0.80;;;;;;;;;;5067635;28;20334;-62
2024/03/13 15:01:12;;;;;;;1.08;0.60;;;;;;;;;;5067707;28;20044;-63
2024/03/13 15:03:49;;;;;;;1.50;0.82;;;;;;;;;;5066982;28;20102;-63
2024/03/13 15:06:17;;;;;;;0.98;0.70;;;;;;;;;;5064479;28;20048;-64
2024/03/13 15:08:46;;;;;;;1.00;0.90;;;;;;;;;;5066277;28;20041;-62
2024/03/13 15:11:14;;;;;;;1.15;0.93;;;;;;;;;;5074731;28;20048;-64
2024/03/13 15:13:46;;;;;;;1.60;0.80;;;;;;;;;;5074174;28;20049;-63
2024/03/13 15:16:15;;;;;;;0.98;0.80;;;;;;;;;;5065742;28;20371;-62
2024/03/13 15:18:43;;;;;;;0.80;0.70;;;;;;;;;;5075901;28;20621;-64